Terminal Aerodrome Forecast
Issued by NWS

Home | Current Version | Previous Version | Text Only | Print | Product List | Glossary On
Versions: 1 2 3 4 5 6 7 8 9 10 11 12 13
000
FTUS46 KMFR 231700 RRA
TAFLMT
TAF
KLMT 231741Z 2318/2418 17012G19KT P6SM -SHRA BKN035 OVC050
     FM240000 22011KT P6SM -SHRA SCT025 BKN035 BKN050
     FM240300 16004KT P6SM -SHRA BKN035 OVC050=

USA.gov is the U.S. government's official web portal to all federal, state and local government web resources and services.